sensor_id;sensor_type;location;lat;lon;timestamp;temperature;humidity
78461;SHT31;67755;51.986;5.696;2024-03-07T00:00:14;9.6;62.9
78461;SHT31;67755;51.986;5.696;2024-03-07T00:02:45;9.6;62.8
78461;SHT31;67755;51.986;5.696;2024-03-07T00:05:16;9.6;63.0
78461;SHT31;67755;51.986;5.696;2024-03-07T00:07:45;9.6;63.3
78461;SHT31;67755;51.986;5.696;2024-03-07T00:10:14;9.6;63.3
78461;SHT31;67755;51.986;5.696;2024-03-07T00:12:43;9.6;62.9
78461;SHT31;67755;51.986;5.696;2024-03-07T00:15:15;9.5;62.7
78461;SHT31;67755;51.986;5.696;2024-03-07T00:17:44;9.5;62.8
78461;SHT31;67755;51.986;5.696;2024-03-07T00:20:12;9.5;62.8
78461;SHT31;67755;51.986;5.696;2024-03-07T00:22:45;9.5;62.9
78461;SHT31;67755;51.986;5.696;2024-03-07T00:25:16;9.5;63.3
78461;SHT31;67755;51.986;5.696;2024-03-07T00:27:50;9.5;63.1
78461;SHT31;67755;51.986;5.696;2024-03-07T00:30:20;9.5;62.8
78461;SHT31;67755;51.986;5.696;2024-03-07T00:32:49;9.5;62.8
78461;SHT31;67755;51.986;5.696;2024-03-07T00:35:19;9.4;62.7
78461;SHT31;67755;51.986;5.696;2024-03-07T00:37:48;9.4;62.9
78461;SHT31;67755;51.986;5.696;2024-03-07T00:40:17;9.4;62.5
78461;SHT31;67755;51.986;5.696;2024-03-07T00:42:48;9.4;63.1
78461;SHT31;67755;51.986;5.696;2024-03-07T00:45:17;9.4;62.9
78461;SHT31;67755;51.986;5.696;2024-03-07T00:47:47;9.4;62.6
78461;SHT31;67755;51.986;5.696;2024-03-07T00:50:17;9.4;62.9
78461;SHT31;67755;51.986;5.696;2024-03-07T00:52:46;9.4;62.7
78461;SHT31;67755;51.986;5.696;2024-03-07T00:55:20;9.4;62.3
78461;SHT31;67755;51.986;5.696;2024-03-07T00:57:49;9.4;62.3
78461;SHT31;67755;51.986;5.696;2024-03-07T01:00:18;9.3;62.4
78461;SHT31;67755;51.986;5.696;2024-03-07T01:02:48;9.3;62.4
78461;SHT31;67755;51.986;5.696;2024-03-07T01:05:19;9.3;62.7
78461;SHT31;67755;51.986;5.696;2024-03-07T01:07:50;9.3;62.6
78461;SHT31;67755;51.986;5.696;2024-03-07T01:10:19;9.3;62.4
78461;SHT31;67755;51.986;5.696;2024-03-07T01:12:48;9.3;62.5
78461;SHT31;67755;51.986;5.696;2024-03-07T01:15:20;9.3;63.3
78461;SHT31;67755;51.986;5.696;2024-03-07T01:17:48;9.3;62.7
78461;SHT31;67755;51.986;5.696;2024-03-07T01:20:17;9.3;62.6
78461;SHT31;67755;51.986;5.696;2024-03-07T01:22:46;9.2;62.4
78461;SHT31;67755;51.986;5.696;2024-03-07T01:25:14;9.2;62.1
78461;SHT31;67755;51.986;5.696;2024-03-07T01:27:44;9.2;62.4
78461;SHT31;67755;51.986;5.696;2024-03-07T01:30:14;9.2;62.0
78461;SHT31;67755;51.986;5.696;2024-03-07T01:32:43;9.2;62.2
78461;SHT31;67755;51.986;5.696;2024-03-07T01:35:12;9.2;62.4
78461;SHT31;67755;51.986;5.696;2024-03-07T01:37:42;9.2;62.2
78461;SHT31;67755;51.986;5.696;2024-03-07T01:40:11;9.2;61.9
78461;SHT31;67755;51.986;5.696;2024-03-07T01:42:40;9.1;61.9
78461;SHT31;67755;51.986;5.696;2024-03-07T01:45:11;9.1;62.1
78461;SHT31;67755;51.986;5.696;2024-03-07T01:47:40;9.1;61.9
78461;SHT31;67755;51.986;5.696;2024-03-07T01:50:09;9.1;61.7
78461;SHT31;67755;51.986;5.696;2024-03-07T01:52:40;9.1;62.0
78461;SHT31;67755;51.986;5.696;2024-03-07T01:55:13;9.1;61.8
78461;SHT31;67755;51.986;5.696;2024-03-07T01:57:42;9.1;61.6
78461;SHT31;67755;51.986;5.696;2024-03-07T02:00:12;9.1;61.8
78461;SHT31;67755;51.986;5.696;2024-03-07T02:02:41;9.1;61.6
78461;SHT31;67755;51.986;5.696;2024-03-07T02:05:10;9.0;61.9
78461;SHT31;67755;51.986;5.696;2024-03-07T02:07:44;9.0;61.7
78461;SHT31;67755;51.986;5.696;2024-03-07T02:10:13;9.0;61.9
78461;SHT31;67755;51.986;5.696;2024-03-07T02:12:46;9.0;61.9
78461;SHT31;67755;51.986;5.696;2024-03-07T02:15:16;9.0;61.7
78461;SHT31;67755;51.986;5.696;2024-03-07T02:17:44;9.0;61.7
78461;SHT31;67755;51.986;5.696;2024-03-07T02:20:13;9.0;61.9
78461;SHT31;67755;51.986;5.696;2024-03-07T02:22:44;8.9;62.3
78461;SHT31;67755;51.986;5.696;2024-03-07T02:25:13;8.9;62.3
78461;SHT31;67755;51.986;5.696;2024-03-07T02:27:42;8.9;62.8
78461;SHT31;67755;51.986;5.696;2024-03-07T02:30:12;8.9;62.7
78461;SHT31;67755;51.986;5.696;2024-03-07T02:32:41;8.9;62.7
78461;SHT31;67755;51.986;5.696;2024-03-07T02:35:14;8.9;62.9
78461;SHT31;67755;51.986;5.696;2024-03-07T02:37:44;8.8;63.0
78461;SHT31;67755;51.986;5.696;2024-03-07T02:40:15;8.8;62.8
78461;SHT31;67755;51.986;5.696;2024-03-07T02:42:44;8.8;63.2
78461;SHT31;67755;51.986;5.696;2024-03-07T02:45:15;8.8;63.0
78461;SHT31;67755;51.986;5.696;2024-03-07T02:47:44;8.8;62.9
78461;SHT31;67755;51.986;5.696;2024-03-07T02:50:13;8.8;62.9
78461;SHT31;67755;51.986;5.696;2024-03-07T02:52:42;8.8;62.8
78461;SHT31;67755;51.986;5.696;2024-03-07T02:55:11;8.8;63.1
78461;SHT31;67755;51.986;5.696;2024-03-07T02:57:39;8.8;62.6
78461;SHT31;67755;51.986;5.696;2024-03-07T03:00:09;8.8;63.0
78461;SHT31;67755;51.986;5.696;2024-03-07T03:02:45;8.7;62.6
78461;SHT31;67755;51.986;5.696;2024-03-07T03:05:17;8.7;63.3
78461;SHT31;67755;51.986;5.696;2024-03-07T03:07:48;8.7;62.7
78461;SHT31;67755;51.986;5.696;2024-03-07T03:10:22;8.7;62.5
78461;SHT31;67755;51.986;5.696;2024-03-07T03:12:56;8.7;62.5
78461;SHT31;67755;51.986;5.696;2024-03-07T03:15:27;8.7;63.0
78461;SHT31;67755;51.986;5.696;2024-03-07T03:17:57;8.7;63.0
78461;SHT31;67755;51.986;5.696;2024-03-07T03:20:26;8.7;62.9
78461;SHT31;67755;51.986;5.696;2024-03-07T03:23:00;8.7;63.0
78461;SHT31;67755;51.986;5.696;2024-03-07T03:25:30;8.7;62.8
78461;SHT31;67755;51.986;5.696;2024-03-07T03:28:01;8.7;62.6
78461;SHT31;67755;51.986;5.696;2024-03-07T03:30:30;8.7;62.6
78461;SHT31;67755;51.986;5.696;2024-03-07T03:32:59;8.6;62.6
78461;SHT31;67755;51.986;5.696;2024-03-07T03:35:28;8.6;62.5
78461;SHT31;67755;51.986;5.696;2024-03-07T03:37:56;8.6;63.2
78461;SHT31;67755;51.986;5.696;2024-03-07T03:40:25;8.6;63.2
78461;SHT31;67755;51.986;5.696;2024-03-07T03:42:54;8.6;63.0
78461;SHT31;67755;51.986;5.696;2024-03-07T03:45:23;8.6;63.4
78461;SHT31;67755;51.986;5.696;2024-03-07T03:47:52;8.6;63.7
78461;SHT31;67755;51.986;5.696;2024-03-07T03:50:21;8.6;63.3
78461;SHT31;67755;51.986;5.696;2024-03-07T03:52:50;8.6;63.3
78461;SHT31;67755;51.986;5.696;2024-03-07T03:55:19;8.5;63.1
78461;SHT31;67755;51.986;5.696;2024-03-07T03:57:49;8.5;63.6
78461;SHT31;67755;51.986;5.696;2024-03-07T04:00:18;8.5;63.4
78461;SHT31;67755;51.986;5.696;2024-03-07T04:02:49;8.5;63.6
78461;SHT31;67755;51.986;5.696;2024-03-07T04:05:19;8.5;63.4
78461;SHT31;67755;51.986;5.696;2024-03-07T04:07:48;8.5;63.5
78461;SHT31;67755;51.986;5.696;2024-03-07T04:10:19;8.5;63.3
78461;SHT31;67755;51.986;5.696;2024-03-07T04:12:48;8.5;63.3
78461;SHT31;67755;51.986;5.696;2024-03-07T04:15:19;8.5;63.6
78461;SHT31;67755;51.986;5.696;2024-03-07T04:17:48;8.5;63.2
78461;SHT31;67755;51.986;5.696;2024-03-07T04:20:16;8.5;63.2
78461;SHT31;67755;51.986;5.696;2024-03-07T04:22:49;8.5;63.4
78461;SHT31;67755;51.986;5.696;2024-03-07T04:25:17;8.4;63.1
78461;SHT31;67755;51.986;5.696;2024-03-07T04:27:46;8.4;63.3
78461;SHT31;67755;51.986;5.696;2024-03-07T04:30:16;8.4;63.2
78461;SHT31;67755;51.986;5.696;2024-03-07T04:32:45;8.4;63.5
78461;SHT31;67755;51.986;5.696;2024-03-07T04:35:13;8.4;63.1
78461;SHT31;67755;51.986;5.696;2024-03-07T04:37:43;8.4;63.1
78461;SHT31;67755;51.986;5.696;2024-03-07T04:40:12;8.4;63.0
78461;SHT31;67755;51.986;5.696;2024-03-07T04:42:46;8.4;62.8
78461;SHT31;67755;51.986;5.696;2024-03-07T04:45:15;8.4;62.8
78461;SHT31;67755;51.986;5.696;2024-03-07T04:47:45;8.4;62.5
78461;SHT31;67755;51.986;5.696;2024-03-07T04:50:16;8.4;62.8
78461;SHT31;67755;51.986;5.696;2024-03-07T04:52:47;8.4;62.5
78461;SHT31;67755;51.986;5.696;2024-03-07T04:55:16;8.4;62.9
78461;SHT31;67755;51.986;5.696;2024-03-07T04:57:44;8.4;62.8
78461;SHT31;67755;51.986;5.696;2024-03-07T05:00:16;8.3;62.9
78461;SHT31;67755;51.986;5.696;2024-03-07T05:02:46;8.3;63.0
78461;SHT31;67755;51.986;5.696;2024-03-07T05:05:15;8.3;62.7
78461;SHT31;67755;51.986;5.696;2024-03-07T05:07:48;8.3;62.6
78461;SHT31;67755;51.986;5.696;2024-03-07T05:10:18;8.3;62.4
78461;SHT31;67755;51.986;5.696;2024-03-07T05:12:46;8.3;62.5
78461;SHT31;67755;51.986;5.696;2024-03-07T05:15:15;8.3;62.4
78461;SHT31;67755;51.986;5.696;2024-03-07T05:17:44;8.3;62.3
78461;SHT31;67755;51.986;5.696;2024-03-07T05:20:13;8.3;62.4
78461;SHT31;67755;51.986;5.696;2024-03-07T05:22:44;8.3;62.7
78461;SHT31;67755;51.986;5.696;2024-03-07T05:25:17;8.3;62.9
78461;SHT31;67755;51.986;5.696;2024-03-07T05:27:48;8.3;62.7
78461;SHT31;67755;51.986;5.696;2024-03-07T05:30:18;8.3;62.7
78461;SHT31;67755;51.986;5.696;2024-03-07T05:32:49;8.3;62.2
78461;SHT31;67755;51.986;5.696;2024-03-07T05:35:18;8.2;62.0
78461;SHT31;67755;51.986;5.696;2024-03-07T05:37:46;8.2;61.8
78461;SHT31;67755;51.986;5.696;2024-03-07T05:40:20;8.2;62.0
78461;SHT31;67755;51.986;5.696;2024-03-07T05:42:49;8.2;61.8
78461;SHT31;67755;51.986;5.696;2024-03-07T05:45:18;8.2;62.0
78461;SHT31;67755;51.986;5.696;2024-03-07T05:47:46;8.2;61.6
78461;SHT31;67755;51.986;5.696;2024-03-07T05:50:15;8.2;61.5
78461;SHT31;67755;51.986;5.696;2024-03-07T05:52:44;8.2;61.7
78461;SHT31;67755;51.986;5.696;2024-03-07T05:55:14;8.2;61.8
78461;SHT31;67755;51.986;5.696;2024-03-07T05:57:45;8.2;61.7
78461;SHT31;67755;51.986;5.696;2024-03-07T06:00:15;8.1;62.2
78461;SHT31;67755;51.986;5.696;2024-03-07T06:02:48;8.1;62.0
78461;SHT31;67755;51.986;5.696;2024-03-07T06:05:17;8.1;62.1
78461;SHT31;67755;51.986;5.696;2024-03-07T06:07:49;8.1;62.2
78461;SHT31;67755;51.986;5.696;2024-03-07T06:10:17;8.1;62.0
78461;SHT31;67755;51.986;5.696;2024-03-07T06:12:50;8.1;61.9
78461;SHT31;67755;51.986;5.696;2024-03-07T06:15:19;8.1;61.9
78461;SHT31;67755;51.986;5.696;2024-03-07T06:17:48;8.1;61.9
78461;SHT31;67755;51.986;5.696;2024-03-07T06:20:17;8.1;61.7
78461;SHT31;67755;51.986;5.696;2024-03-07T06:22:51;8.1;62.0
78461;SHT31;67755;51.986;5.696;2024-03-07T06:25:20;8.1;61.9
78461;SHT31;67755;51.986;5.696;2024-03-07T06:27:54;8.1;61.9
78461;SHT31;67755;51.986;5.696;2024-03-07T06:30:23;8.0;61.7
78461;SHT31;67755;51.986;5.696;2024-03-07T06:32:53;8.0;61.8
78461;SHT31;67755;51.986;5.696;2024-03-07T06:35:22;8.0;61.8
78461;SHT31;67755;51.986;5.696;2024-03-07T06:37:50;8.0;62.0
78461;SHT31;67755;51.986;5.696;2024-03-07T06:40:19;8.0;62.0
78461;SHT31;67755;51.986;5.696;2024-03-07T06:42:49;8.0;62.0
78461;SHT31;67755;51.986;5.696;2024-03-07T06:45:20;8.0;62.1
78461;SHT31;67755;51.986;5.696;2024-03-07T06:47:52;8.0;62.0
78461;SHT31;67755;51.986;5.696;2024-03-07T06:50:22;8.0;62.0
78461;SHT31;67755;51.986;5.696;2024-03-07T06:52:51;8.0;62.1
78461;SHT31;67755;51.986;5.696;2024-03-07T06:55:20;8.0;62.2
78461;SHT31;67755;51.986;5.696;2024-03-07T06:57:51;7.9;62.2
78461;SHT31;67755;51.986;5.696;2024-03-07T07:00:20;7.9;62.3
78461;SHT31;67755;51.986;5.696;2024-03-07T07:02:49;7.9;62.6
78461;SHT31;67755;51.986;5.696;2024-03-07T07:05:19;7.9;62.7
78461;SHT31;67755;51.986;5.696;2024-03-07T07:07:52;7.9;62.7
78461;SHT31;67755;51.986;5.696;2024-03-07T07:10:23;7.9;62.9
78461;SHT31;67755;51.986;5.696;2024-03-07T07:12:52;7.9;62.8
78461;SHT31;67755;51.986;5.696;2024-03-07T07:15:21;7.9;63.0
78461;SHT31;67755;51.986;5.696;2024-03-07T07:17:50;7.9;63.2
78461;SHT31;67755;51.986;5.696;2024-03-07T07:20:18;7.9;63.3
78461;SHT31;67755;51.986;5.696;2024-03-07T07:22:50;7.8;63.4
78461;SHT31;67755;51.986;5.696;2024-03-07T07:25:19;7.8;63.7
78461;SHT31;67755;51.986;5.696;2024-03-07T07:27:50;7.8;63.6
78461;SHT31;67755;51.986;5.696;2024-03-07T07:30:22;7.8;63.7
78461;SHT31;67755;51.986;5.696;2024-03-07T09:03:38;9.8;59.1
78461;SHT31;67755;51.986;5.696;2024-03-07T09:06:07;9.8;59.7
78461;SHT31;67755;51.986;5.696;2024-03-07T09:08:40;9.8;60.0
78461;SHT31;67755;51.986;5.696;2024-03-07T09:11:09;9.8;58.8
78461;SHT31;67755;51.986;5.696;2024-03-07T09:13:39;9.8;58.6
78461;SHT31;67755;51.986;5.696;2024-03-07T09:16:09;9.8;57.0
78461;SHT31;67755;51.986;5.696;2024-03-07T09:18:38;9.8;58.8
78461;SHT31;67755;51.986;5.696;2024-03-07T09:21:07;9.8;57.3
78461;SHT31;67755;51.986;5.696;2024-03-07T09:23:35;9.8;58.5
78461;SHT31;67755;51.986;5.696;2024-03-07T09:26:04;9.8;57.8
78461;SHT31;67755;51.986;5.696;2024-03-07T09:28:33;9.8;58.3
78461;SHT31;67755;51.986;5.696;2024-03-07T09:31:02;9.8;59.6
78461;SHT31;67755;51.986;5.696;2024-03-07T09:33:30;9.8;57.1
78461;SHT31;67755;51.986;5.696;2024-03-07T09:35:59;9.9;56.3
78461;SHT31;67755;51.986;5.696;2024-03-07T09:38:28;9.9;56.4
78461;SHT31;67755;51.986;5.696;2024-03-07T09:40:58;9.9;56.7
78461;SHT31;67755;51.986;5.696;2024-03-07T09:43:28;10.0;56.7
78461;SHT31;67755;51.986;5.696;2024-03-07T09:45:58;10.0;55.1
78461;SHT31;67755;51.986;5.696;2024-03-07T09:48:30;10.1;56.0
78461;SHT31;67755;51.986;5.696;2024-03-07T09:51:00;10.1;55.6
78461;SHT31;67755;51.986;5.696;2024-03-07T09:53:31;10.2;55.7
78461;SHT31;67755;51.986;5.696;2024-03-07T09:56:00;10.2;54.2
78461;SHT31;67755;51.986;5.696;2024-03-07T09:58:31;10.3;53.9
78461;SHT31;67755;51.986;5.696;2024-03-07T10:01:02;10.3;54.7
78461;SHT31;67755;51.986;5.696;2024-03-07T10:03:35;10.4;56.3
78461;SHT31;67755;51.986;5.696;2024-03-07T10:06:04;10.4;51.7
78461;SHT31;67755;51.986;5.696;2024-03-07T10:08:33;10.5;52.9
78461;SHT31;67755;51.986;5.696;2024-03-07T10:11:02;10.5;54.2
78461;SHT31;67755;51.986;5.696;2024-03-07T10:13:30;10.6;53.1
78461;SHT31;67755;51.986;5.696;2024-03-07T10:15:59;10.6;54.2
78461;SHT31;67755;51.986;5.696;2024-03-07T10:18:28;10.6;51.7
78461;SHT31;67755;51.986;5.696;2024-03-07T10:20:57;10.7;52.8
78461;SHT31;67755;51.986;5.696;2024-03-07T10:23:28;10.7;50.9
78461;SHT31;67755;51.986;5.696;2024-03-07T10:25:56;10.8;51.5
78461;SHT31;67755;51.986;5.696;2024-03-07T10:28:26;10.8;51.3
78461;SHT31;67755;51.986;5.696;2024-03-07T10:30:55;10.8;51.1
78461;SHT31;67755;51.986;5.696;2024-03-07T10:33:27;10.9;51.0
78461;SHT31;67755;51.986;5.696;2024-03-07T10:36:00;10.9;51.0
78461;SHT31;67755;51.986;5.696;2024-03-07T10:38:28;10.9;50.4
78461;SHT31;67755;51.986;5.696;2024-03-07T10:41:00;11.0;49.4
78461;SHT31;67755;51.986;5.696;2024-03-07T10:43:37;11.0;51.0
78461;SHT31;67755;51.986;5.696;2024-03-07T10:46:10;11.0;51.5
78461;SHT31;67755;51.986;5.696;2024-03-07T10:48:46;11.1;50.8
78461;SHT31;67755;51.986;5.696;2024-03-07T10:51:24;11.1;50.0
78461;SHT31;67755;51.986;5.696;2024-03-07T10:54:02;11.1;51.2
78461;SHT31;67755;51.986;5.696;2024-03-07T10:56:45;11.2;51.4
78461;SHT31;67755;51.986;5.696;2024-03-07T10:59:19;11.2;52.0
78461;SHT31;67755;51.986;5.696;2024-03-07T11:01:56;11.3;50.8
78461;SHT31;67755;51.986;5.696;2024-03-07T11:04:26;11.3;50.7
78461;SHT31;67755;51.986;5.696;2024-03-07T11:06:55;11.3;50.9
78461;SHT31;67755;51.986;5.696;2024-03-07T11:09:25;11.4;51.8
78461;SHT31;67755;51.986;5.696;2024-03-07T11:12:00;11.4;51.1
78461;SHT31;67755;51.986;5.696;2024-03-07T11:14:32;11.5;50.9
78461;SHT31;67755;51.986;5.696;2024-03-07T11:17:03;11.5;51.5
78461;SHT31;67755;51.986;5.696;2024-03-07T11:19:33;11.5;50.7
78461;SHT31;67755;51.986;5.696;2024-03-07T11:22:03;11.6;51.0
78461;SHT31;67755;51.986;5.696;2024-03-07T11:24:38;11.6;50.3
78461;SHT31;67755;51.986;5.696;2024-03-07T11:27:10;11.6;50.0
78461;SHT31;67755;51.986;5.696;2024-03-07T11:29:41;11.7;50.1
78461;SHT31;67755;51.986;5.696;2024-03-07T11:32:13;11.7;50.3
78461;SHT31;67755;51.986;5.696;2024-03-07T11:34:44;11.7;49.6
78461;SHT31;67755;51.986;5.696;2024-03-07T11:37:19;11.7;50.2
78461;SHT31;67755;51.986;5.696;2024-03-07T11:39:49;11.7;49.6
78461;SHT31;67755;51.986;5.696;2024-03-07T11:42:25;11.7;47.8
78461;SHT31;67755;51.986;5.696;2024-03-07T11:44:55;11.7;48.1
78461;SHT31;67755;51.986;5.696;2024-03-07T11:47:24;11.7;48.7
78461;SHT31;67755;51.986;5.696;2024-03-07T11:49:56;11.7;49.3
78461;SHT31;67755;51.986;5.696;2024-03-07T11:52:25;11.7;49.6
78461;SHT31;67755;51.986;5.696;2024-03-07T11:54:54;11.8;48.1
78461;SHT31;67755;51.986;5.696;2024-03-07T11:57:28;11.8;48.0
78461;SHT31;67755;51.986;5.696;2024-03-07T11:59:59;11.8;47.4
78461;SHT31;67755;51.986;5.696;2024-03-07T12:02:34;11.8;48.6
78461;SHT31;67755;51.986;5.696;2024-03-07T12:05:03;11.8;48.5
78461;SHT31;67755;51.986;5.696;2024-03-07T12:07:33;11.8;48.9
78461;SHT31;67755;51.986;5.696;2024-03-07T12:10:03;11.8;50.1
78461;SHT31;67755;51.986;5.696;2024-03-07T12:12:32;11.8;48.2
78461;SHT31;67755;51.986;5.696;2024-03-07T12:15:05;11.9;48.1
78461;SHT31;67755;51.986;5.696;2024-03-07T12:17:40;11.9;49.6
78461;SHT31;67755;51.986;5.696;2024-03-07T12:20:11;11.9;48.4
78461;SHT31;67755;51.986;5.696;2024-03-07T12:22:57;11.9;49.0
78461;SHT31;67755;51.986;5.696;2024-03-07T12:25:28;12.0;48.2
78461;SHT31;67755;51.986;5.696;2024-03-07T12:28:04;12.0;49.4
78461;SHT31;67755;51.986;5.696;2024-03-07T12:30:50;12.0;49.0
78461;SHT31;67755;51.986;5.696;2024-03-07T12:33:20;12.0;48.4
78461;SHT31;67755;51.986;5.696;2024-03-07T12:35:53;12.1;48.9
78461;SHT31;67755;51.986;5.696;2024-03-07T12:38:29;12.1;50.2
78461;SHT31;67755;51.986;5.696;2024-03-07T12:41:06;12.1;49.5
78461;SHT31;67755;51.986;5.696;2024-03-07T12:43:40;12.1;51.5
78461;SHT31;67755;51.986;5.696;2024-03-07T12:46:12;12.2;50.2
78461;SHT31;67755;51.986;5.696;2024-03-07T12:48:41;12.2;49.5
78461;SHT31;67755;51.986;5.696;2024-03-07T12:51:11;12.3;49.6
78461;SHT31;67755;51.986;5.696;2024-03-07T12:53:43;12.3;48.6
78461;SHT31;67755;51.986;5.696;2024-03-07T12:56:12;12.4;49.8
78461;SHT31;67755;51.986;5.696;2024-03-07T12:58:44;12.4;50.6
78461;SHT31;67755;51.986;5.696;2024-03-07T13:01:13;12.4;50.1
78461;SHT31;67755;51.986;5.696;2024-03-07T13:03:42;12.4;50.2
78461;SHT31;67755;51.986;5.696;2024-03-07T13:06:12;12.5;49.8
78461;SHT31;67755;51.986;5.696;2024-03-07T13:08:43;12.5;49.7
78461;SHT31;67755;51.986;5.696;2024-03-07T13:11:11;12.5;50.9
78461;SHT31;67755;51.986;5.696;2024-03-07T13:13:40;12.5;50.1
78461;SHT31;67755;51.986;5.696;2024-03-07T13:16:08;12.6;50.2
78461;SHT31;67755;51.986;5.696;2024-03-07T13:18:38;12.6;50.8
78461;SHT31;67755;51.986;5.696;2024-03-07T13:21:06;12.6;51.0
78461;SHT31;67755;51.986;5.696;2024-03-07T13:23:37;12.6;50.8
78461;SHT31;67755;51.986;5.696;2024-03-07T13:26:06;12.6;50.6
78461;SHT31;67755;51.986;5.696;2024-03-07T13:28:39;12.5;51.3
78461;SHT31;67755;51.986;5.696;2024-03-07T13:31:10;12.5;51.2
78461;SHT31;67755;51.986;5.696;2024-03-07T13:33:43;12.5;51.3
78461;SHT31;67755;51.986;5.696;2024-03-07T13:36:12;12.5;52.2
78461;SHT31;67755;51.986;5.696;2024-03-07T13:38:46;12.5;51.7
78461;SHT31;67755;51.986;5.696;2024-03-07T13:41:15;12.5;51.9
78461;SHT31;67755;51.986;5.696;2024-03-07T13:43:43;12.5;51.2
78461;SHT31;67755;51.986;5.696;2024-03-07T13:46:12;12.5;52.3
78461;SHT31;67755;51.986;5.696;2024-03-07T13:48:44;12.5;52.9
78461;SHT31;67755;51.986;5.696;2024-03-07T13:51:13;12.5;52.5
78461;SHT31;67755;51.986;5.696;2024-03-07T13:53:43;12.5;52.4
78461;SHT31;67755;51.986;5.696;2024-03-07T13:56:42;12.4;52.5
78461;SHT31;67755;51.986;5.696;2024-03-07T14:02:39;12.4;52.7
78461;SHT31;67755;51.986;5.696;2024-03-07T14:06:06;12.4;52.9
78461;SHT31;67755;51.986;5.696;2024-03-07T14:09:03;12.3;54.1
78461;SHT31;67755;51.986;5.696;2024-03-07T14:15:27;12.3;53.2
78461;SHT31;67755;51.986;5.696;2024-03-07T14:18:33;12.2;54.0
78461;SHT31;67755;51.986;5.696;2024-03-07T14:24:45;12.2;53.3
78461;SHT31;67755;51.986;5.696;2024-03-07T14:27:24;12.2;53.4
78461;SHT31;67755;51.986;5.696;2024-03-07T14:30:13;12.1;54.1
78461;SHT31;67755;51.986;5.696;2024-03-07T14:32:49;12.1;54.5
78461;SHT31;67755;51.986;5.696;2024-03-07T14:35:28;12.1;54.1
78461;SHT31;67755;51.986;5.696;2024-03-07T14:40:45;12.1;55.2
78461;SHT31;67755;51.986;5.696;2024-03-07T14:43:19;12.1;54.6
78461;SHT31;67755;51.986;5.696;2024-03-07T14:45:49;12.1;53.3
78461;SHT31;67755;51.986;5.696;2024-03-07T14:48:21;12.1;53.4
78461;SHT31;67755;51.986;5.696;2024-03-07T14:50:50;12.1;53.0
78461;SHT31;67755;51.986;5.696;2024-03-07T14:53:19;12.0;53.2
78461;SHT31;67755;51.986;5.696;2024-03-07T14:55:48;12.0;53.4
78461;SHT31;67755;51.986;5.696;2024-03-07T14:58:17;12.0;53.4
78461;SHT31;67755;51.986;5.696;2024-03-07T15:00:46;12.0;54.4
78461;SHT31;67755;51.986;5.696;2024-03-07T15:03:17;12.0;53.3
78461;SHT31;67755;51.986;5.696;2024-03-07T15:05:48;12.0;54.0
78461;SHT31;67755;51.986;5.696;2024-03-07T15:08:19;12.0;53.9
78461;SHT31;67755;51.986;5.696;2024-03-07T15:10:56;12.0;53.5
78461;SHT31;67755;51.986;5.696;2024-03-07T15:13:28;12.0;53.4
78461;SHT31;67755;51.986;5.696;2024-03-07T15:15:56;12.1;53.2
78461;SHT31;67755;51.986;5.696;2024-03-07T15:18:26;12.1;53.0
78461;SHT31;67755;51.986;5.696;2024-03-07T15:20:54;12.1;54.0
78461;SHT31;67755;51.986;5.696;2024-03-07T15:23:23;12.1;53.9
78461;SHT31;67755;51.986;5.696;2024-03-07T15:25:53;12.2;53.4
78461;SHT31;67755;51.986;5.696;2024-03-07T15:28:22;12.2;53.5
78461;SHT31;67755;51.986;5.696;2024-03-07T15:30:50;12.2;53.3
78461;SHT31;67755;51.986;5.696;2024-03-07T15:33:21;12.2;53.9
78461;SHT31;67755;51.986;5.696;2024-03-07T15:35:50;12.3;54.4
78461;SHT31;67755;51.986;5.696;2024-03-07T15:38:19;12.3;52.8
78461;SHT31;67755;51.986;5.696;2024-03-07T15:40:49;12.3;53.7
78461;SHT31;67755;51.986;5.696;2024-03-07T15:43:27;12.3;54.0
78461;SHT31;67755;51.986;5.696;2024-03-07T15:45:56;12.3;53.0
78461;SHT31;67755;51.986;5.696;2024-03-07T15:48:26;12.3;53.4
78461;SHT31;67755;51.986;5.696;2024-03-07T15:50:57;12.3;53.1
78461;SHT31;67755;51.986;5.696;2024-03-07T15:53:26;12.4;52.9
78461;SHT31;67755;51.986;5.696;2024-03-07T15:55:54;12.4;52.0
78461;SHT31;67755;51.986;5.696;2024-03-07T15:58:24;12.3;52.3
78461;SHT31;67755;51.986;5.696;2024-03-07T16:00:52;12.3;52.6
78461;SHT31;67755;51.986;5.696;2024-03-07T16:03:22;12.3;52.7
78461;SHT31;67755;51.986;5.696;2024-03-07T16:05:51;12.3;53.0
78461;SHT31;67755;51.986;5.696;2024-03-07T16:08:20;12.2;52.9
78461;SHT31;67755;51.986;5.696;2024-03-07T16:10:53;12.2;52.7
78461;SHT31;67755;51.986;5.696;2024-03-07T16:13:21;12.2;53.3
78461;SHT31;67755;51.986;5.696;2024-03-07T16:15:52;12.1;53.1
78461;SHT31;67755;51.986;5.696;2024-03-07T16:18:21;12.1;53.5
78461;SHT31;67755;51.986;5.696;2024-03-07T16:20:52;12.0;54.4
78461;SHT31;67755;51.986;5.696;2024-03-07T16:23:22;12.0;53.8
78461;SHT31;67755;51.986;5.696;2024-03-07T16:25:51;12.0;53.0
78461;SHT31;67755;51.986;5.696;2024-03-07T16:28:20;11.9;53.7
78461;SHT31;67755;51.986;5.696;2024-03-07T16:30:53;11.9;54.0
78461;SHT31;67755;51.986;5.696;2024-03-07T16:33:27;11.9;54.4
78461;SHT31;67755;51.986;5.696;2024-03-07T16:35:56;11.8;54.4
78461;SHT31;67755;51.986;5.696;2024-03-07T16:38:25;11.8;54.1
78461;SHT31;67755;51.986;5.696;2024-03-07T16:40:53;11.8;54.1
78461;SHT31;67755;51.986;5.696;2024-03-07T16:43:22;11.8;54.4
78461;SHT31;67755;51.986;5.696;2024-03-07T16:45:52;11.8;54.9
78461;SHT31;67755;51.986;5.696;2024-03-07T16:48:21;11.8;55.1
78461;SHT31;67755;51.986;5.696;2024-03-07T16:50:51;11.7;55.7
78461;SHT31;67755;51.986;5.696;2024-03-07T16:53:20;11.7;55.8
78461;SHT31;67755;51.986;5.696;2024-03-07T16:55:49;11.7;54.6
78461;SHT31;67755;51.986;5.696;2024-03-07T16:58:18;11.7;54.6
78461;SHT31;67755;51.986;5.696;2024-03-07T17:00:48;11.7;55.1
78461;SHT31;67755;51.986;5.696;2024-03-07T17:03:18;11.7;54.4
78461;SHT31;67755;51.986;5.696;2024-03-07T17:05:47;11.7;55.0
78461;SHT31;67755;51.986;5.696;2024-03-07T17:08:17;11.7;55.0
78461;SHT31;67755;51.986;5.696;2024-03-07T17:10:49;11.6;54.5
78461;SHT31;67755;51.986;5.696;2024-03-07T17:13:21;11.6;55.0
78461;SHT31;67755;51.986;5.696;2024-03-07T17:15:52;11.6;54.9
78461;SHT31;67755;51.986;5.696;2024-03-07T17:18:25;11.6;55.0
78461;SHT31;67755;51.986;5.696;2024-03-07T17:20:53;11.5;55.8
78461;SHT31;67755;51.986;5.696;2024-03-07T17:23:24;11.5;55.4
78461;SHT31;67755;51.986;5.696;2024-03-07T17:25:54;11.5;55.2
78461;SHT31;67755;51.986;5.696;2024-03-07T17:28:23;11.4;55.3
78461;SHT31;67755;51.986;5.696;2024-03-07T17:30:53;11.4;55.3
78461;SHT31;67755;51.986;5.696;2024-03-07T17:33:22;11.4;55.6
78461;SHT31;67755;51.986;5.696;2024-03-07T17:35:52;11.3;55.1
78461;SHT31;67755;51.986;5.696;2024-03-07T17:38:23;11.3;55.5
78461;SHT31;67755;51.986;5.696;2024-03-07T17:40:53;11.3;55.4
78461;SHT31;67755;51.986;5.696;2024-03-07T17:43:23;11.2;54.4
78461;SHT31;67755;51.986;5.696;2024-03-07T17:45:51;11.2;54.8
78461;SHT31;67755;51.986;5.696;2024-03-07T17:48:21;11.1;54.5
78461;SHT31;67755;51.986;5.696;2024-03-07T17:50:53;11.1;54.6
78461;SHT31;67755;51.986;5.696;2024-03-07T17:53:24;11.0;54.8
78461;SHT31;67755;51.986;5.696;2024-03-07T17:55:52;11.0;55.2
78461;SHT31;67755;51.986;5.696;2024-03-07T17:58:22;11.0;55.1
78461;SHT31;67755;51.986;5.696;2024-03-07T18:00:50;10.9;55.0
78461;SHT31;67755;51.986;5.696;2024-03-07T18:03:19;10.9;55.4
78461;SHT31;67755;51.986;5.696;2024-03-07T18:05:48;10.9;54.9
78461;SHT31;67755;51.986;5.696;2024-03-07T18:08:18;10.8;55.2
78461;SHT31;67755;51.986;5.696;2024-03-07T18:10:47;10.8;55.2
78461;SHT31;67755;51.986;5.696;2024-03-07T18:13:16;10.8;55.4
78461;SHT31;67755;51.986;5.696;2024-03-07T18:15:46;10.8;55.3